Time;durP1;ratioP1;P1;durP2;ratioP2;P2;SDS_P1;SDS_P2;PMS_P1;PMS_P2;Temp;Humidity;BMP_temperature;BMP_pressure;BME280_temperature;BME280_humidity;BME280_pressure;Samples;Min_cycle;Max_cycle;Signal;HPM_P1;HPM_P2
2022/03/11 00:01:33;;;;;;;3.83;1.77;;;;;;;-6.00;67.53;146187.20;1793415;78;21328;-58
2022/03/11 00:04:01;;;;;;;6.30;2.27;;;;;;;-6.02;66.68;146180.88;1823101;78;21078;-58
2022/03/11 00:06:28;;;;;;;5.37;2.40;;;;;;;-6.05;63.81;146175.75;1823455;78;23116;-59
2022/03/11 00:08:57;;;;;;;6.57;1.83;;;;;;;-6.07;63.16;146170.64;1822954;78;20971;-58
2022/03/11 00:11:24;;;;;;;6.97;2.33;;;;;;;-6.08;63.13;146168.08;1804751;78;21079;-58
2022/03/11 00:13:53;;;;;;;5.77;2.30;;;;;;;-6.06;63.46;146173.20;1787374;79;21035;-58
2022/03/11 00:16:20;;;;;;;4.57;2.20;;;;;;;-6.05;64.88;146175.75;1787895;79;21035;-58
2022/03/11 00:18:48;;;;;;;7.97;2.70;;;;;;;-6.07;65.73;146170.64;1787491;79;21791;-58
2022/03/11 00:21:16;;;;;;;5.03;2.00;;;;;;;-6.06;66.69;146171.91;1787691;79;21073;-58
2022/03/11 00:23:44;;;;;;;5.10;1.53;;;;;;;-6.09;65.97;146164.22;1787342;79;21375;-58
2022/03/11 00:26:11;;;;;;;5.63;2.07;;;;;;;-6.12;63.88;146157.80;1787478;79;21631;-56
2022/03/11 00:28:38;;;;;;;5.57;2.50;;;;;;;-6.13;64.65;146155.25;1787635;78;20989;-57
2022/03/11 00:31:05;;;;;;;4.00;1.80;;;;;;;-6.14;65.93;146151.44;1787590;80;21954;-57
2022/03/11 00:33:34;;;;;;;7.37;3.17;;;;;;;-6.17;65.54;146143.75;1787458;78;21081;-57
2022/03/11 00:36:01;;;;;;;4.17;2.03;;;;;;;-6.17;66.20;146145.02;1787752;79;20985;-57
2022/03/11 00:38:28;;;;;;;8.43;2.27;;;;;;;-6.18;65.04;146142.45;1787681;80;21479;-58
2022/03/11 00:40:58;;;;;;;3.07;1.83;;;;;;;-6.19;65.36;146139.89;1787502;80;21025;-58
2022/03/11 00:43:26;;;;;;;9.07;2.47;;;;;;;-6.19;66.93;146139.89;1775090;78;22810;-63
2022/03/11 00:45:53;;;;;;;3.23;1.30;;;;;;;-6.20;66.48;146137.34;1770794;79;21537;-64
2022/03/11 00:48:21;;;;;;;5.43;1.90;;;;;;;-6.23;66.64;146129.66;1770558;79;21025;-58
2022/03/11 00:50:48;;;;;;;5.33;2.13;;;;;;;-6.24;67.17;146127.09;1770168;81;21049;-59
2022/03/11 00:53:15;;;;;;;4.07;1.97;;;;;;;-6.26;67.91;146121.98;1770350;81;21065;-59
2022/03/11 00:55:42;;;;;;;5.60;2.23;;;;;;;-6.27;67.93;146119.44;1770284;79;20864;-60
2022/03/11 00:58:09;;;;;;;7.33;2.00;;;;;;;-6.25;68.49;146124.55;1769773;81;21065;-59
2022/03/11 01:00:36;;;;;;;5.73;2.50;;;;;;;-6.27;67.73;146119.44;1770710;81;21009;-59
2022/03/11 01:03:04;;;;;;;3.90;1.80;;;;;;;-6.29;68.43;146115.56;1770051;81;21088;-57
2022/03/11 01:05:31;;;;;;;3.97;2.17;;;;;;;-6.27;68.00;146119.44;1770851;81;20966;-58
2022/03/11 01:08:01;;;;;;;6.37;2.80;;;;;;;-6.28;68.31;146116.88;1770381;81;20977;-58
2022/03/11 01:10:29;;;;;;;11.30;1.73;;;;;;;-6.28;69.20;146118.12;1771184;81;20987;-58
2022/03/11 01:12:57;;;;;;;5.60;2.43;;;;;;;-6.28;69.23;146116.88;1770733;79;21091;-57
2022/03/11 01:15:26;;;;;;;8.13;2.40;;;;;;;-6.29;70.12;146114.31;1771100;79;21015;-58
2022/03/11 01:17:52;;;;;;;6.73;2.40;;;;;;;-6.29;70.53;146114.31;1771022;81;21037;-58
2022/03/11 01:20:19;;;;;;;4.40;2.13;;;;;;;-6.29;70.69;146115.56;1771178;81;21089;-58
2022/03/11 01:22:47;;;;;;;5.53;2.00;;;;;;;-6.26;69.06;146121.98;1771152;79;21001;-58
2022/03/11 01:25:15;;;;;;;5.73;2.07;;;;;;;-6.26;67.61;146121.98;1771076;79;21495;-58
2022/03/11 01:27:44;;;;;;;6.30;2.43;;;;;;;-6.22;67.70;146132.22;1771382;79;20906;-58
2022/03/11 01:30:16;;;;;;;5.90;2.27;;;;;;;-6.21;67.87;146136.03;1771380;79;21038;-59
2022/03/11 01:32:43;;;;;;;4.57;2.17;;;;;;;-6.22;68.48;146132.22;1771260;81;21755;-59
2022/03/11 01:35:11;;;;;;;4.57;1.97;;;;;;;-6.24;68.40;146128.36;1771047;81;21117;-58
2022/03/11 01:37:39;;;;;;;8.20;2.70;;;;;;;-6.24;69.23;146128.36;1771454;80;21027;-58
2022/03/11 01:40:09;;;;;;;10.30;2.13;;;;;;;-6.25;69.60;146124.55;1770678;81;21081;-58
2022/03/11 01:42:36;;;;;;;3.03;1.73;;;;;;;-6.28;68.37;146116.88;1775943;79;21071;-58
2022/03/11 01:45:05;;;;;;;3.67;1.80;;;;;;;-6.33;69.17;146106.59;1787458;79;21513;-60
2022/03/11 01:47:32;;;;;;;3.83;2.03;;;;;;;-6.33;69.18;146106.59;1787927;80;21489;-59
2022/03/11 01:50:02;;;;;;;6.17;2.30;;;;;;;-6.35;68.68;146100.22;1787862;79;21029;-58
2022/03/11 01:52:29;;;;;;;4.60;2.00;;;;;;;-6.35;69.47;146100.22;1788155;79;21033;-63
2022/03/11 01:54:56;;;;;;;3.93;1.97;;;;;;;-6.37;69.45;146096.36;1787561;79;21063;-58
2022/03/11 01:57:24;;;;;;;5.87;1.93;;;;;;;-6.37;69.63;146095.11;1787704;80;21683;-58
2022/03/11 01:59:53;;;;;;;6.13;2.40;;;;;;;-6.40;69.62;146087.44;1788265;79;21107;-58
2022/03/11 02:02:21;;;;;;;4.80;2.73;;;;;;;-6.39;70.52;146091.25;1787687;78;21028;-67
2022/03/11 02:04:50;;;;;;;4.67;2.20;;;;;;;-6.39;70.61;146090.00;1787438;78;20989;-66
2022/03/11 02:07:17;;;;;;;9.20;2.40;;;;;;;-6.39;71.76;146091.25;1787260;80;21097;-66
2022/03/11 02:09:45;;;;;;;6.93;2.43;;;;;;;-6.36;71.71;146098.92;1787692;80;21297;-66
2022/03/11 02:12:12;;;;;;;4.47;1.77;;;;;;;-6.37;70.92;146096.36;1786944;80;21060;-60
2022/03/11 02:14:39;;;;;;;3.10;1.43;;;;;;;-6.38;71.52;146093.81;1767617;80;21024;-57
2022/03/11 02:17:09;;;;;;;6.67;2.60;;;;;;;-6.41;71.79;146086.13;1786894;79;21020;-66
2022/03/11 02:19:37;;;;;;;4.70;1.90;;;;;;;-6.42;72.24;146082.28;1787647;80;21095;-65
2022/03/11 02:22:04;;;;;;;11.23;3.17;;;;;;;-6.42;72.73;146082.28;1786873;79;21284;-60
2022/03/11 02:24:32;;;;;;;3.67;1.80;;;;;;;-6.46;72.24;146073.34;1787132;80;20993;-58
2022/03/11 02:26:59;;;;;;;5.93;2.13;;;;;;;-6.47;72.30;146070.78;1786536;79;21020;-58
2022/03/11 02:29:27;;;;;;;10.17;3.30;;;;;;;-6.51;72.03;146061.81;1786958;78;21034;-58
2022/03/11 02:31:54;;;;;;;3.27;1.90;;;;;;;-6.51;73.06;146060.56;1786724;79;21056;-58
2022/03/11 02:34:21;;;;;;;10.43;2.60;;;;;;;-6.51;73.30;146060.56;1788004;80;21205;-57
2022/03/11 02:36:48;;;;;;;6.53;2.10;;;;;;;-6.55;74.15;146051.59;1788156;79;21404;-64
2022/03/11 02:39:16;;;;;;;9.07;2.43;;;;;;;-6.56;76.04;146047.72;1787845;79;21023;-64
2022/03/11 02:41:45;;;;;;;4.97;1.87;;;;;;;-6.59;77.19;146040.06;1788194;79;20955;-64
2022/03/11 02:44:12;;;;;;;3.80;2.23;;;;;;;-6.62;77.75;146034.94;1774291;79;21612;-59
2022/03/11 02:46:40;;;;;;;5.30;2.43;;;;;;;-6.68;79.45;146019.59;1771275;79;20981;-60
2022/03/11 02:49:07;;;;;;;9.27;3.50;;;;;;;-6.69;81.11;146017.05;1771589;79;21057;-57
2022/03/11 02:51:35;;;;;;;3.93;1.83;;;;;;;-6.71;82.39;146011.94;1772009;79;20931;-60
2022/03/11 02:54:03;;;;;;;13.03;2.53;;;;;;;-6.76;82.79;145999.09;1770926;79;22067;-59
2022/03/11 02:56:30;;;;;;;8.37;3.10;;;;;;;-6.79;84.25;145991.44;1771414;79;21562;-58
2022/03/11 02:58:57;;;;;;;7.53;2.13;;;;;;;-6.82;84.44;145985.06;1769965;81;21123;-58
2022/03/11 03:01:23;;;;;;;6.27;2.90;;;;;;;-6.87;84.93;145970.97;1771401;81;20934;-58
2022/03/11 03:03:51;;;;;;;8.27;3.87;;;;;;;-6.91;86.30;145963.31;1771759;81;20925;-58
2022/03/11 03:06:19;;;;;;;7.43;3.40;;;;;;;-6.91;88.10;145962.00;1771453;81;21104;-66
2022/03/11 03:08:47;;;;;;;7.20;3.30;;;;;;;-6.92;87.67;145960.75;1771360;79;21013;-60
2022/03/11 03:11:14;;;;;;;7.07;3.00;;;;;;;-6.92;87.24;145960.75;1787117;78;21238;-58
2022/03/11 03:13:41;;;;;;;3.60;1.73;;;;;;;-6.92;85.82;145960.75;1765180;81;20882;-58
2022/03/11 03:16:09;;;;;;;10.77;2.70;;;;;;;-6.88;84.04;145968.42;1764931;81;21469;-58
2022/03/11 03:18:36;;;;;;;7.57;2.17;;;;;;;-6.86;83.07;145973.53;1764906;81;21064;-59
2022/03/11 03:21:03;;;;;;;8.70;2.60;;;;;;;-6.84;81.25;145978.64;1764652;81;20980;-67
2022/03/11 03:23:32;;;;;;;4.10;2.37;;;;;;;-6.82;81.02;145985.06;1764562;81;21260;-59
2022/03/11 03:26:01;;;;;;;10.37;2.43;;;;;;;-6.81;79.08;145987.63;1764713;81;21107;-59
2022/03/11 03:28:29;;;;;;;5.10;1.93;;;;;;;-6.77;79.35;145997.84;1764636;81;21043;-67
2022/03/11 03:30:57;;;;;;;3.70;1.57;;;;;;;-6.74;78.06;146004.25;1766140;81;21070;-57
2022/03/11 03:33:25;;;;;;;3.17;1.50;;;;;;;-6.77;75.83;145996.53;1766556;81;21460;-66
2022/03/11 03:35:52;;;;;;;4.53;1.90;;;;;;;-6.79;75.87;145991.44;1766406;81;21063;-59
2022/03/11 03:38:20;;;;;;;7.33;2.27;;;;;;;-6.78;76.62;145993.98;1766920;81;20992;-59
2022/03/11 03:40:47;;;;;;;3.93;2.20;;;;;;;-6.76;76.03;146000.41;1766727;81;21011;-59
2022/03/11 03:43:14;;;;;;;4.43;2.00;;;;;;;-6.77;76.40;145996.53;1769914;79;21114;-64
2022/03/11 03:45:41;;;;;;;5.90;2.13;;;;;;;-6.76;76.74;145999.09;1784770;79;20981;-65
2022/03/11 03:48:08;;;;;;;5.87;2.30;;;;;;;-6.78;76.88;145993.98;1784910;80;22638;-64
2022/03/11 03:50:37;;;;;;;5.43;2.80;;;;;;;-6.80;77.15;145988.88;1785416;79;21036;-57
2022/03/11 03:53:04;;;;;;;8.67;1.90;;;;;;;-6.80;77.18;145990.17;1784857;78;21067;-59
2022/03/11 03:55:32;;;;;;;7.10;2.07;;;;;;;-6.84;76.22;145978.64;1784959;79;21033;-58
2022/03/11 03:58:00;;;;;;;5.03;2.37;;;;;;;-6.87;77.00;145970.97;1784886;80;21087;-60
2022/03/11 04:00:27;;;;;;;5.57;1.53;;;;;;;-6.88;78.41;145969.67;1785127;80;21287;-60
2022/03/11 04:02:55;;;;;;;5.47;2.60;;;;;;;-6.92;77.85;145960.75;1808694;78;21058;-59
2022/03/11 04:05:22;;;;;;;7.17;2.50;;;;;;;-6.96;78.10;145950.53;1820303;78;21470;-58
2022/03/11 04:07:50;;;;;;;3.47;1.53;;;;;;;-6.97;78.76;145947.92;1820333;78;21006;-66
2022/03/11 04:10:18;;;;;;;7.73;2.37;;;;;;;-7.02;78.03;145935.14;1820917;78;22092;-59
2022/03/11 04:12:45;;;;;;;7.17;2.93;;;;;;;-7.07;77.28;145923.66;1785380;78;21753;-57
2022/03/11 04:15:13;;;;;;;5.73;2.23;;;;;;;-7.08;78.64;145921.06;1784714;79;21016;-59
2022/03/11 04:17:40;;;;;;;10.03;2.50;;;;;;;-7.12;77.73;145909.58;1785174;80;21494;-59
2022/03/11 04:20:09;;;;;;;8.63;2.40;;;;;;;-7.11;78.94;145913.39;1784801;80;21036;-66
2022/03/11 04:22:43;;;;;;;7.47;2.80;;;;;;;-7.10;78.31;145914.69;1785455;79;21214;-58
2022/03/11 04:25:14;;;;;;;6.90;2.65;;;;;;;-7.11;78.03;145912.13;1784975;79;27754;-58
2022/03/11 04:27:41;;;;;;;4.63;2.13;;;;;;;-7.11;78.77;145912.13;1785025;80;21041;-59
2022/03/11 04:30:09;;;;;;;7.83;2.07;;;;;;;-7.08;79.12;145919.81;1784639;78;21030;-59
2022/03/11 04:32:36;;;;;;;3.37;1.80;;;;;;;-7.06;79.61;145926.22;1784773;79;21057;-58
2022/03/11 04:35:05;;;;;;;5.13;2.13;;;;;;;-7.03;78.93;145932.58;1783890;80;21654;-66
2022/03/11 04:37:33;;;;;;;10.80;2.90;;;;;;;-7.03;79.12;145932.58;1784847;78;21217;-59
2022/03/11 04:40:00;;;;;;;4.00;2.43;;;;;;;-7.04;78.61;145930.03;1784198;78;21014;-59
2022/03/11 04:42:27;;;;;;;3.97;1.60;;;;;;;-7.05;78.41;145927.47;1784742;78;21113;-58
2022/03/11 04:44:56;;;;;;;8.20;2.80;;;;;;;-7.09;78.53;145918.50;1777388;79;21417;-59
2022/03/11 04:47:23;;;;;;;6.07;2.23;;;;;;;-7.08;78.92;145921.06;1770447;79;22199;-64
2022/03/11 04:49:52;;;;;;;7.43;2.60;;;;;;;-7.06;80.05;145924.91;1770823;79;20995;-59
2022/03/11 04:52:20;;;;;;;4.87;2.47;;;;;;;-7.03;80.58;145932.58;1771130;81;21535;-59
2022/03/11 04:54:47;;;;;;;5.30;2.23;;;;;;;-7.02;80.60;145933.88;1770529;81;21459;-64
2022/03/11 04:57:14;;;;;;;4.70;2.57;;;;;;;-7.02;80.70;145935.14;1770596;79;21084;-64
2022/03/11 04:59:42;;;;;;;6.70;2.40;;;;;;;-7.01;80.98;145936.44;1770917;81;21052;-59
2022/03/11 05:02:09;;;;;;;4.27;1.97;;;;;;;-7.02;81.46;145935.14;1770819;80;21471;-57
2022/03/11 05:04:36;;;;;;;7.63;2.97;;;;;;;-7.02;81.89;145935.14;1770890;79;21010;-59
2022/03/11 05:07:06;;;;;;;7.67;3.47;;;;;;;-7.03;82.67;145932.58;1770044;81;21041;-60
2022/03/11 05:09:32;;;;;;;6.60;2.23;;;;;;;-7.06;83.29;145924.91;1770681;81;21053;-59
2022/03/11 05:11:59;;;;;;;6.07;2.57;;;;;;;-7.09;83.55;145917.25;1766639;81;21076;-59
2022/03/11 05:14:27;;;;;;;6.73;3.30;;;;;;;-7.10;85.54;145914.69;1764293;81;21115;-59
2022/03/11 05:16:53;;;;;;;4.97;2.10;;;;;;;-7.09;87.73;145917.25;1763969;81;21123;-59
2022/03/11 05:19:24;;;;;;;4.60;2.43;;;;;;;-7.07;86.96;145923.66;1764574;81;21044;-58
2022/03/11 05:21:51;;;;;;;6.20;2.90;;;;;;;-7.06;87.51;145924.91;1764871;81;21005;-59
2022/03/11 05:24:18;;;;;;;5.70;2.67;;;;;;;-7.06;86.54;145924.91;1764567;81;21032;-58
2022/03/11 05:26:48;;;;;;;6.80;2.67;;;;;;;-7.02;87.25;145933.88;1765580;80;21268;-58
2022/03/11 05:29:15;;;;;;;5.37;2.70;;;;;;;-6.99;86.36;145941.55;1765198;81;21110;-59
2022/03/11 05:31:44;;;;;;;9.17;2.93;;;;;;;-6.91;87.11;145963.31;1767325;81;21011;-58
2022/03/11 05:34:11;;;;;;;6.83;3.43;;;;;;;-6.80;86.71;145990.17;1766908;81;21039;-59
2022/03/11 05:36:38;;;;;;;4.77;1.83;;;;;;;-6.71;87.11;146011.94;1767858;81;21066;-57
2022/03/11 05:39:05;;;;;;;5.07;2.23;;;;;;;-6.65;85.82;146027.27;1767142;81;21228;-58
2022/03/11 05:41:33;;;;;;;8.33;3.00;;;;;;;-6.62;85.37;146033.69;1767093;81;21449;-59
2022/03/11 05:44:00;;;;;;;6.10;2.47;;;;;;;-6.62;86.07;146033.69;1766363;81;21086;-58
2022/03/11 05:46:26;;;;;;;4.87;2.03;;;;;;;-6.63;85.69;146031.13;1766807;81;21336;-57
2022/03/11 05:48:53;;;;;;;9.43;2.90;;;;;;;-6.65;86.31;146025.97;1766674;81;20924;-58
2022/03/11 05:51:20;;;;;;;9.27;2.77;;;;;;;-6.62;87.24;146034.94;1766703;81;21196;-57
2022/03/11 05:53:47;;;;;;;7.73;3.50;;;;;;;-6.56;88.18;146047.72;1766658;80;21046;-58
2022/03/11 05:56:14;;;;;;;6.07;2.70;;;;;;;-6.53;88.49;146055.41;1767104;81;21038;-59
2022/03/11 05:58:42;;;;;;;6.97;2.37;;;;;;;-6.50;89.10;146063.13;1767306;81;21016;-64
2022/03/11 06:01:09;;;;;;;11.70;5.40;;;;;;;-6.52;88.80;146057.95;1766983;81;21523;-64
2022/03/11 06:03:37;;;;;;;8.83;2.90;;;;;;;-6.56;89.88;146049.03;1766830;80;21133;-64
2022/03/11 06:06:04;;;;;;;6.00;2.27;;;;;;;-6.56;90.48;146047.72;1766829;81;20999;-64
2022/03/11 06:08:31;;;;;;;15.33;3.60;;;;;;;-6.58;90.19;146043.92;1743734;81;21063;-64
2022/03/11 06:10:59;;;;;;;5.27;2.47;;;;;;;-6.60;90.82;146037.50;1785436;79;21040;-63
2022/03/11 06:13:26;;;;;;;7.87;3.37;;;;;;;-6.60;91.98;146038.80;1764862;81;21589;-58
2022/03/11 06:15:53;;;;;;;7.57;2.70;;;;;;;-6.58;92.50;146042.61;1764926;80;21151;-64
2022/03/11 06:18:21;;;;;;;5.93;2.60;;;;;;;-6.58;92.76;146042.61;1764769;81;21008;-63
2022/03/11 06:20:49;;;;;;;10.87;2.33;;;;;;;-6.57;93.53;146045.17;1765109;81;21451;-64
2022/03/11 06:23:15;;;;;;;5.10;2.70;;;;;;;-6.59;93.57;146040.06;1764630;81;21103;-64
2022/03/11 06:25:43;;;;;;;9.50;4.23;;;;;;;-6.62;92.66;146033.69;1764843;80;21009;-64
2022/03/11 06:28:10;;;;;;;6.43;3.20;;;;;;;-6.65;92.53;146027.27;1764624;81;21220;-59
2022/03/11 06:30:37;;;;;;;6.23;2.80;;;;;;;-6.63;92.70;146032.38;1769798;81;21049;-64
2022/03/11 06:33:06;;;;;;;13.67;3.43;;;;;;;-6.65;91.32;146027.27;1771169;81;21023;-64
2022/03/11 06:35:33;;;;;;;9.03;3.53;;;;;;;-6.70;94.37;146013.19;1771389;81;21048;-64
2022/03/11 06:38:01;;;;;;;7.70;3.50;;;;;;;-6.72;95.98;146009.38;1770866;79;21049;-59
2022/03/11 06:40:28;;;;;;;7.67;3.30;;;;;;;-6.69;96.60;146017.05;1771519;79;21205;-60
2022/03/11 06:42:55;;;;;;;7.17;3.10;;;;;;;-6.65;96.00;146027.27;1771059;81;21056;-58
2022/03/11 06:45:21;;;;;;;6.27;2.60;;;;;;;-6.59;96.28;146040.06;1776775;79;21040;-58
2022/03/11 06:47:49;;;;;;;7.43;2.20;;;;;;;-6.53;95.39;146055.41;1787471;80;21087;-58
2022/03/11 06:50:17;;;;;;;12.87;3.07;;;;;;;-6.51;93.48;146060.56;1787338;80;21545;-58
2022/03/11 06:52:44;;;;;;;8.90;3.47;;;;;;;-6.51;92.22;146061.81;1788310;80;21231;-59
2022/03/11 06:55:13;;;;;;;7.67;3.10;;;;;;;-6.48;92.18;146068.23;1787843;80;21103;-65
2022/03/11 06:57:40;;;;;;;4.20;2.00;;;;;;;-6.46;93.31;146073.34;1788264;79;20941;-59
2022/03/11 07:00:09;;;;;;;7.03;2.20;;;;;;;-6.41;91.95;146086.13;1787816;80;21025;-59
2022/03/11 07:02:36;;;;;;;6.37;2.67;;;;;;;-6.39;90.83;146091.25;1788638;79;20968;-58
2022/03/11 07:05:04;;;;;;;5.50;2.47;;;;;;;-6.33;92.56;146105.34;1788196;78;22374;-63
2022/03/11 07:07:33;;;;;;;13.10;3.33;;;;;;;-6.28;93.22;146116.88;1788265;79;21060;-58
2022/03/11 07:10:05;;;;;;;7.87;3.23;;;;;;;-6.22;93.33;146132.22;1787823;80;21040;-57
2022/03/11 07:12:32;;;;;;;5.67;2.50;;;;;;;-6.20;93.13;146137.34;1788323;79;21060;-65
2022/03/11 07:15:04;;;;;;;7.67;3.10;;;;;;;-6.20;92.59;146137.34;1787255;79;21016;-64
2022/03/11 07:17:31;;;;;;;11.30;3.50;;;;;;;-6.19;92.06;146141.20;1768535;80;21462;-64
2022/03/11 07:19:58;;;;;;;6.77;3.30;;;;;;;-6.15;92.94;146150.13;1787712;79;21048;-59
2022/03/11 07:22:25;;;;;;;11.97;3.13;;;;;;;-6.08;92.21;146168.08;1788054;80;21533;-58
2022/03/11 07:24:52;;;;;;;7.37;3.67;;;;;;;-6.02;92.04;146180.88;1787975;80;20946;-58
2022/03/11 07:27:24;;;;;;;7.93;3.37;;;;;;;-5.93;92.96;146203.86;1787812;80;36271;-59
2022/03/11 07:29:51;;;;;;;8.23;2.27;;;;;;;-5.82;91.22;146232.05;1775203;80;21183;-57
2022/03/11 07:32:18;;;;;;;5.67;2.30;;;;;;;-5.69;89.05;146262.75;1756486;81;21036;-58
2022/03/11 07:34:45;;;;;;;5.33;2.27;;;;;;;-5.63;88.94;146278.16;1756631;81;20953;-57
2022/03/11 07:37:13;;;;;;;4.60;2.30;;;;;;;-5.61;85.92;146283.28;1756132;81;21075;-57
2022/03/11 07:39:41;;;;;;;4.90;2.53;;;;;;;-5.60;84.82;146285.84;1757266;81;21009;-59
2022/03/11 07:42:08;;;;;;;5.47;2.63;;;;;;;-5.61;84.91;146283.28;1756701;81;21361;-60
2022/03/11 07:44:35;;;;;;;11.57;2.77;;;;;;;-5.59;85.22;146288.39;1773233;78;21380;-59
2022/03/11 07:47:03;;;;;;;5.63;2.33;;;;;;;-5.59;83.89;146288.39;1786560;79;21036;-58
2022/03/11 07:49:31;;;;;;;5.63;2.50;;;;;;;-5.58;83.14;146289.66;1786924;78;21021;-59
2022/03/11 07:51:58;;;;;;;5.87;2.57;;;;;;;-5.46;85.00;146321.67;1786604;80;21110;-59
2022/03/11 07:54:25;;;;;;;3.50;1.90;;;;;;;-5.30;85.28;146360.13;1787096;80;21229;-59
2022/03/11 07:56:52;;;;;;;7.90;2.13;;;;;;;-5.23;82.04;146378.03;1787357;79;21024;-58
2022/03/11 07:59:19;;;;;;;5.23;2.50;;;;;;;-5.24;81.82;146375.47;1787106;80;21016;-59
2022/03/11 08:01:47;;;;;;;8.47;3.13;;;;;;;-5.28;80.45;146363.97;1797012;78;21121;-57
2022/03/11 08:04:16;;;;;;;7.93;2.30;;;;;;;-5.29;81.02;146361.42;1822762;78;21473;-58
2022/03/11 08:06:44;;;;;;;6.10;2.97;;;;;;;-5.38;79.19;146340.89;1823431;78;21761;-59
2022/03/11 08:09:11;;;;;;;11.50;3.80;;;;;;;-5.40;81.42;146334.52;1822969;78;21008;-58
2022/03/11 08:11:38;;;;;;;14.10;2.53;;;;;;;-5.40;82.50;146335.78;1801635;78;21012;-59
2022/03/11 08:14:05;;;;;;;5.17;2.17;;;;;;;-5.41;82.40;146331.95;1787593;79;21176;-58
2022/03/11 08:16:33;;;;;;;6.30;2.70;;;;;;;-5.40;84.54;146334.52;1788078;79;21046;-58
2022/03/11 08:19:02;;;;;;;6.27;2.80;;;;;;;-5.37;84.29;146342.19;1787945;79;21236;-58
2022/03/11 08:21:29;;;;;;;5.80;2.87;;;;;;;-5.29;85.15;146361.42;1787590;78;21478;-59
2022/03/11 08:23:56;;;;;;;7.83;3.20;;;;;;;-5.14;83.69;146398.56;1787564;80;21644;-58
2022/03/11 08:26:27;;;;;;;8.50;2.67;;;;;;;-5.04;82.78;146424.17;1787678;79;21445;-58
2022/03/11 08:28:53;;;;;;;6.37;2.07;;;;;;;-5.01;83.46;146431.86;1787592;80;21494;-58
2022/03/11 08:31:20;;;;;;;7.93;2.23;;;;;;;-5.07;85.33;146416.48;1787711;79;22012;-58
2022/03/11 08:33:47;;;;;;;7.63;3.33;;;;;;;-5.25;88.63;146372.91;1787490;79;21522;-57
2022/03/11 08:36:14;;;;;;;7.50;3.00;;;;;;;-5.34;91.80;146349.87;1787500;79;21280;-63
2022/03/11 08:38:41;;;;;;;5.43;2.70;;;;;;;-5.41;93.03;146333.22;1787638;78;22156;-63
2022/03/11 08:41:08;;;;;;;9.93;2.97;;;;;;;-5.43;92.88;146326.78;1787078;78;21460;-63
2022/03/11 08:43:38;;;;;;;6.87;3.30;;;;;;;-5.41;93.86;146331.95;1785674;80;21829;-57
2022/03/11 08:46:09;;;;;;;7.73;3.17;;;;;;;-5.44;93.97;146324.22;1771104;79;21032;-59
2022/03/11 08:48:37;;;;;;;8.10;3.83;;;;;;;-5.50;95.15;146311.44;1775307;79;21038;-58
2022/03/11 08:51:48;;;;;;;6.00;3.07;;;;;;;-5.52;96.64;146306.31;1774902;80;21007;-58
2022/03/11 08:54:15;;;;;;;6.53;2.87;;;;;;;-5.54;96.84;146301.19;1747061;80;21027;-58
2022/03/11 08:56:42;;;;;;;8.23;3.23;;;;;;;-5.62;96.44;146280.72;1775435;80;21107;-58
2022/03/11 08:59:10;;;;;;;9.50;3.87;;;;;;;-5.59;97.05;146288.39;1775274;79;21015;-58
2022/03/11 09:01:38;;;;;;;10.80;3.90;;;;;;;-5.48;97.75;146315.30;1775659;79;21020;-58
2022/03/11 09:04:05;;;;;;;5.47;2.57;;;;;;;-5.43;97.83;146326.78;1775279;80;21015;-57
2022/03/11 09:06:33;;;;;;;7.87;3.33;;;;;;;-5.33;98.59;146352.44;1775327;79;21035;-58
2022/03/11 09:09:00;;;;;;;9.60;3.30;;;;;;;-5.30;96.59;146360.13;1775285;79;21200;-57
2022/03/11 09:11:38;;;;;;;10.20;3.70;;;;;;;-5.21;97.12;146383.16;1804555;78;21039;-57
2022/03/11 09:14:07;;;;;;;4.90;2.27;;;;;;;-5.13;95.00;146401.13;1790512;80;20979;-57
2022/03/11 09:16:36;;;;;;;9.60;3.40;;;;;;;-5.22;93.41;146380.59;1791116;79;20952;-57
2022/03/11 09:19:04;;;;;;;9.60;3.30;;;;;;;-5.30;96.45;146360.13;1790590;80;21126;-57
2022/03/11 09:21:31;;;;;;;6.90;3.23;;;;;;;-5.36;95.96;146344.75;1791062;80;21225;-58
2022/03/11 09:23:58;;;;;;;8.17;3.17;;;;;;;-5.41;95.19;146331.95;1790907;80;20983;-58
2022/03/11 09:26:25;;;;;;;7.47;3.83;;;;;;;-5.43;96.04;146326.78;1791111;79;21055;-58
2022/03/11 09:28:52;;;;;;;7.63;3.40;;;;;;;-5.36;97.07;146344.75;1790521;80;20930;-64
2022/03/11 09:31:22;;;;;;;5.03;2.57;;;;;;;-5.13;97.12;146401.13;1786994;80;22192;-64
2022/03/11 09:33:48;;;;;;;6.07;3.07;;;;;;;-5.00;90.88;146434.41;1787305;80;21228;-64
2022/03/11 09:36:16;;;;;;;4.90;2.37;;;;;;;-4.88;92.43;146463.89;1786682;80;21104;-66
2022/03/11 09:38:43;;;;;;;8.50;3.60;;;;;;;-4.84;91.33;146472.88;1787452;80;20951;-65
2022/03/11 09:41:12;;;;;;;6.97;3.90;;;;;;;-4.83;91.50;146475.44;1787036;80;21522;-65
2022/03/11 09:43:39;;;;;;;15.70;3.63;;;;;;;-4.79;91.17;146486.98;1787135;80;21028;-60
2022/03/11 09:46:06;;;;;;;6.93;3.17;;;;;;;-4.73;89.95;146501.09;1785169;79;21087;-59
2022/03/11 09:48:35;;;;;;;6.50;2.60;;;;;;;-4.69;87.54;146510.03;1771200;81;21022;-58
2022/03/11 09:51:06;;;;;;;6.60;3.23;;;;;;;-4.70;83.72;146508.78;1771559;81;21028;-59
2022/03/11 09:53:34;;;;;;;9.17;3.27;;;;;;;-4.69;81.89;146511.34;1771474;81;21057;-65
2022/03/11 09:56:01;;;;;;;10.23;3.00;;;;;;;-4.60;81.69;146534.39;1758370;81;21064;-65
2022/03/11 09:58:29;;;;;;;10.33;2.60;;;;;;;-4.44;81.89;146571.56;1770915;79;21141;-59
2022/03/11 10:00:59;;;;;;;8.63;3.53;;;;;;;-4.35;80.17;146595.92;1771407;81;20949;-57
2022/03/11 10:03:29;;;;;;;4.43;2.30;;;;;;;-4.26;79.99;146616.47;1770735;81;21481;-65
2022/03/11 10:05:56;;;;;;;7.20;3.07;;;;;;;-4.40;77.33;146583.11;1771294;79;21027;-64
2022/03/11 10:08:36;;;;;;;7.13;3.03;;;;;;;-4.57;77.74;146540.83;1771794;79;20985;-64
2022/03/11 10:11:26;;;;;;;7.53;3.30;;;;;;;-4.70;74.98;146507.47;1771742;79;21149;-59
2022/03/11 10:14:09;;;;;;;7.67;3.23;;;;;;;-4.72;75.37;146503.66;1770937;79;21056;-58
2022/03/11 10:16:40;;;;;;;7.60;3.00;;;;;;;-4.57;76.89;146539.52;1771356;81;21022;-63
2022/03/11 10:19:19;;;;;;;5.27;3.30;;;;;;;-4.43;78.97;146575.44;1771527;79;21012;-63
2022/03/11 10:21:54;;;;;;;7.80;3.23;;;;;;;-4.41;81.60;146580.56;1714748;81;20998;-57
2022/03/11 10:24:28;;;;;;;9.03;3.43;;;;;;;-4.44;83.40;146572.87;1758413;81;21272;-59
2022/03/11 10:27:03;;;;;;;6.27;3.27;;;;;;;-4.57;82.24;146539.52;1761015;80;21029;-56
2022/03/11 10:29:36;;;;;;;;;;;;;;;-4.72;78.25;146502.34;1774377;81;20971;-57
2022/03/11 10:32:04;;;;;;;4.80;2.33;;;;;;;-4.76;77.17;146493.36;1771640;79;20120;-58
2022/03/11 10:34:34;;;;;;;5.20;3.00;;;;;;;-4.70;76.52;146507.47;1724001;81;21078;-59
2022/03/11 10:37:12;;;;;;;6.20;3.27;;;;;;;-4.61;76.50;146531.83;1771655;79;21210;-58
2022/03/11 10:39:43;;;;;;;7.15;3.30;;;;;;;-4.44;77.79;146571.56;1771127;81;21034;-58
2022/03/11 10:42:20;;;;;;;6.62;3.00;;;;;;;-4.25;77.23;146620.30;1770210;79;21049;-57
2022/03/11 10:45:04;;;;;;;8.50;4.00;;;;;;;-4.08;78.25;146661.34;1771227;79;20961;-58
2022/03/11 10:47:38;;;;;;;7.87;3.43;;;;;;;-3.92;77.13;146701.09;1770259;79;21116;-59
2022/03/11 10:50:08;;;;;;;8.50;3.00;;;;;;;-3.85;74.02;146717.78;1770376;79;21135;-59
2022/03/11 10:52:47;;;;;;;6.37;3.50;;;;;;;-3.97;77.52;146688.28;1771009;79;21466;-58
2022/03/11 10:55:26;;;;;;;6.90;3.07;;;;;;;-4.23;85.27;146624.16;1770440;80;21044;-59
2022/03/11 10:57:57;;;;;;;12.30;4.50;;;;;;;-4.60;83.76;146533.14;1770841;81;20954;-58
2022/03/11 11:00:30;;;;;;;8.63;3.60;;;;;;;-4.81;83.59;146481.86;1770945;80;20988;-58
2022/03/11 11:02:59;;;;;;;7.07;3.63;;;;;;;-4.83;84.27;146475.44;1771015;79;21762;-58
2022/03/11 11:05:28;;;;;;;9.67;4.13;;;;;;;-4.76;81.14;146494.66;1771716;81;20966;-58
2022/03/11 11:07:56;;;;;;;8.50;3.67;;;;;;;-4.65;78.46;146521.59;1770685;81;21329;-58
2022/03/11 11:10:25;;;;;;;9.33;3.13;;;;;;;-4.55;77.06;146544.64;1770882;79;20919;-58
2022/03/11 11:12:53;;;;;;;9.93;2.97;;;;;;;-4.50;72.89;146558.75;1771322;79;20902;-58
2022/03/11 11:15:24;;;;;;;6.80;3.00;;;;;;;-4.41;73.81;146580.56;1771246;81;21237;-57
2022/03/11 11:17:52;;;;;;;9.37;2.90;;;;;;;-4.28;74.05;146611.34;1771543;79;20974;-58
2022/03/11 11:20:35;;;;;;;6.23;3.07;;;;;;;-4.10;73.20;146656.22;1771199;81;21034;-57
2022/03/11 11:23:07;;;;;;;16.10;3.10;;;;;;;-4.08;72.68;146662.64;1771829;79;21406;-59
2022/03/11 11:25:36;;;;;;;8.33;3.70;;;;;;;-4.17;79.81;146639.53;1771776;79;21728;-56
2022/03/11 11:28:08;;;;;;;9.00;3.70;;;;;;;-4.32;84.55;146603.61;1771233;79;21225;-58
2022/03/11 11:30:39;;;;;;;7.43;3.47;;;;;;;-4.38;87.65;146588.25;1771716;79;20982;-57